sensor_id;sensor_type;location;lat;lon;timestamp;P1;durP1;ratioP1;P2;durP2;ratioP2
9960;SDS011;5021;51.506;11.320;2023-02-28T00:01:34;3.00;;;2.27;;
9960;SDS011;5021;51.506;11.320;2023-02-28T00:04:00;3.17;;;2.10;;
9960;SDS011;5021;51.506;11.320;2023-02-28T00:06:29;2.63;;;2.37;;
9960;SDS011;5021;51.506;11.320;2023-02-28T00:08:55;2.90;;;2.30;;
9960;SDS011;5021;51.506;11.320;2023-02-28T00:11:21;2.60;;;2.40;;
9960;SDS011;5021;51.506;11.320;2023-02-28T00:13:47;3.60;;;2.10;;
9960;SDS011;5021;51.506;11.320;2023-02-28T00:16:15;2.67;;;2.20;;
9960;SDS011;5021;51.506;11.320;2023-02-28T00:18:41;3.17;;;2.00;;
9960;SDS011;5021;51.506;11.320;2023-02-28T00:21:07;2.50;;;2.00;;
9960;SDS011;5021;51.506;11.320;2023-02-28T00:23:33;4.13;;;2.83;;
9960;SDS011;5021;51.506;11.320;2023-02-28T00:25:59;2.40;;;2.20;;
9960;SDS011;5021;51.506;11.320;2023-02-28T00:28:25;3.33;;;2.10;;
9960;SDS011;5021;51.506;11.320;2023-02-28T00:30:51;3.40;;;2.20;;
9960;SDS011;5021;51.506;11.320;2023-02-28T00:33:17;2.37;;;2.17;;
9960;SDS011;5021;51.506;11.320;2023-02-28T00:35:43;2.97;;;2.00;;
9960;SDS011;5021;51.506;11.320;2023-02-28T00:38:11;2.67;;;2.47;;
9960;SDS011;5021;51.506;11.320;2023-02-28T00:40:37;2.73;;;2.33;;
9960;SDS011;5021;51.506;11.320;2023-02-28T00:43:03;2.30;;;2.07;;
9960;SDS011;5021;51.506;11.320;2023-02-28T00:45:29;3.20;;;2.10;;
9960;SDS011;5021;51.506;11.320;2023-02-28T00:47:54;3.30;;;2.20;;
9960;SDS011;5021;51.506;11.320;2023-02-28T00:50:20;2.93;;;2.00;;
9960;SDS011;5021;51.506;11.320;2023-02-28T00:52:47;2.73;;;1.90;;
9960;SDS011;5021;51.506;11.320;2023-02-28T00:55:13;2.97;;;2.30;;
9960;SDS011;5021;51.506;11.320;2023-02-28T00:57:39;2.63;;;2.33;;
9960;SDS011;5021;51.506;11.320;2023-02-28T01:00:05;2.30;;;2.10;;
9960;SDS011;5021;51.506;11.320;2023-02-28T01:02:32;2.73;;;2.40;;
9960;SDS011;5021;51.506;11.320;2023-02-28T01:04:57;2.60;;;2.20;;
9960;SDS011;5021;51.506;11.320;2023-02-28T01:07:23;2.30;;;2.10;;
9960;SDS011;5021;51.506;11.320;2023-02-28T01:09:49;2.60;;;2.23;;
9960;SDS011;5021;51.506;11.320;2023-02-28T01:12:15;2.43;;;2.17;;
9960;SDS011;5021;51.506;11.320;2023-02-28T01:14:41;2.67;;;2.40;;
9960;SDS011;5021;51.506;11.320;2023-02-28T01:17:07;3.30;;;2.47;;
9960;SDS011;5021;51.506;11.320;2023-02-28T01:19:33;3.57;;;2.53;;
9960;SDS011;5021;51.506;11.320;2023-02-28T01:22:01;3.93;;;3.57;;
9960;SDS011;5021;51.506;11.320;2023-02-28T01:24:27;2.50;;;2.20;;
9960;SDS011;5021;51.506;11.320;2023-02-28T01:26:53;3.53;;;2.50;;
9960;SDS011;5021;51.506;11.320;2023-02-28T01:29:19;3.70;;;2.60;;
9960;SDS011;5021;51.506;11.320;2023-02-28T01:31:45;2.83;;;2.57;;
9960;SDS011;5021;51.506;11.320;2023-02-28T01:34:10;2.40;;;2.13;;
9960;SDS011;5021;51.506;11.320;2023-02-28T01:36:37;2.40;;;2.20;;
9960;SDS011;5021;51.506;11.320;2023-02-28T01:39:03;2.57;;;2.37;;
9960;SDS011;5021;51.506;11.320;2023-02-28T01:41:30;2.73;;;2.30;;
9960;SDS011;5021;51.506;11.320;2023-02-28T01:44:06;2.93;;;2.40;;
9960;SDS011;5021;51.506;11.320;2023-02-28T01:46:33;3.33;;;2.57;;
9960;SDS011;5021;51.506;11.320;2023-02-28T01:49:01;2.40;;;2.03;;
9960;SDS011;5021;51.506;11.320;2023-02-28T01:53:55;2.80;;;2.40;;
9960;SDS011;5021;51.506;11.320;2023-02-28T01:56:23;3.50;;;2.40;;
9960;SDS011;5021;51.506;11.320;2023-02-28T01:58:50;2.90;;;2.50;;
9960;SDS011;5021;51.506;11.320;2023-02-28T02:01:16;2.40;;;2.20;;
9960;SDS011;5021;51.506;11.320;2023-02-28T02:03:49;3.50;;;2.23;;
9960;SDS011;5021;51.506;11.320;2023-02-28T02:06:30;3.70;;;2.30;;
9960;SDS011;5021;51.506;11.320;2023-02-28T02:08:56;2.80;;;2.40;;
9960;SDS011;5021;51.506;11.320;2023-02-28T02:11:22;2.53;;;2.33;;
9960;SDS011;5021;51.506;11.320;2023-02-28T02:14:00;3.00;;;2.40;;
9960;SDS011;5021;51.506;11.320;2023-02-28T02:27:08;3.57;;;2.63;;
9960;SDS011;5021;51.506;11.320;2023-02-28T02:37:52;3.03;;;2.33;;
9960;SDS011;5021;51.506;11.320;2023-02-28T02:40:23;2.97;;;2.43;;
9960;SDS011;5021;51.506;11.320;2023-02-28T02:43:01;2.77;;;2.57;;
9960;SDS011;5021;51.506;11.320;2023-02-28T02:45:37;2.90;;;2.40;;
9960;SDS011;5021;51.506;11.320;2023-02-28T02:48:04;3.37;;;2.43;;
9960;SDS011;5021;51.506;11.320;2023-02-28T02:50:33;2.60;;;2.23;;
9960;SDS011;5021;51.506;11.320;2023-02-28T02:53:02;2.40;;;2.20;;
9960;SDS011;5021;51.506;11.320;2023-02-28T02:55:29;3.43;;;2.47;;
9960;SDS011;5021;51.506;11.320;2023-02-28T02:58:01;3.20;;;2.33;;
9960;SDS011;5021;51.506;11.320;2023-02-28T03:00:31;2.60;;;2.30;;
9960;SDS011;5021;51.506;11.320;2023-02-28T03:02:58;2.57;;;2.37;;
9960;SDS011;5021;51.506;11.320;2023-02-28T03:06:07;4.37;;;2.60;;
9960;SDS011;5021;51.506;11.320;2023-02-28T03:08:14;3.87;;;2.33;;
9960;SDS011;5021;51.506;11.320;2023-02-28T03:10:41;2.97;;;2.27;;
9960;SDS011;5021;51.506;11.320;2023-02-28T03:13:18;3.10;;;2.50;;
9960;SDS011;5021;51.506;11.320;2023-02-28T03:15:58;3.03;;;2.50;;
9960;SDS011;5021;51.506;11.320;2023-02-28T03:18:32;2.30;;;2.10;;
9960;SDS011;5021;51.506;11.320;2023-02-28T03:21:05;3.47;;;2.73;;
9960;SDS011;5021;51.506;11.320;2023-02-28T03:23:38;3.30;;;2.80;;
9960;SDS011;5021;51.506;11.320;2023-02-28T03:26:11;3.37;;;2.50;;
9960;SDS011;5021;51.506;11.320;2023-02-28T03:28:58;3.57;;;2.57;;
9960;SDS011;5021;51.506;11.320;2023-02-28T03:36:22;3.17;;;2.77;;
9960;SDS011;5021;51.506;11.320;2023-02-28T03:39:00;3.67;;;2.53;;
9960;SDS011;5021;51.506;11.320;2023-02-28T03:42:28;3.20;;;2.90;;
9960;SDS011;5021;51.506;11.320;2023-02-28T03:44:28;3.60;;;3.03;;
9960;SDS011;5021;51.506;11.320;2023-02-28T03:47:07;3.00;;;2.70;;
9960;SDS011;5021;51.506;11.320;2023-02-28T03:49:35;3.43;;;2.90;;
9960;SDS011;5021;51.506;11.320;2023-02-28T03:52:02;3.07;;;2.43;;
9960;SDS011;5021;51.506;11.320;2023-02-28T03:54:33;3.70;;;2.67;;
9960;SDS011;5021;51.506;11.320;2023-02-28T03:57:03;3.37;;;2.80;;
9960;SDS011;5021;51.506;11.320;2023-02-28T03:59:33;3.60;;;2.70;;
9960;SDS011;5021;51.506;11.320;2023-02-28T04:02:00;4.53;;;3.20;;
9960;SDS011;5021;51.506;11.320;2023-02-28T04:04:26;3.10;;;2.80;;
9960;SDS011;5021;51.506;11.320;2023-02-28T04:06:52;3.40;;;3.07;;
9960;SDS011;5021;51.506;11.320;2023-02-28T04:09:18;4.10;;;3.27;;
9960;SDS011;5021;51.506;11.320;2023-02-28T04:11:45;3.20;;;2.90;;
9960;SDS011;5021;51.506;11.320;2023-02-28T04:14:14;4.13;;;3.03;;
9960;SDS011;5021;51.506;11.320;2023-02-28T04:16:40;5.50;;;3.30;;
9960;SDS011;5021;51.506;11.320;2023-02-28T04:19:07;5.20;;;3.10;;
9960;SDS011;5021;51.506;11.320;2023-02-28T04:21:35;4.13;;;2.90;;
9960;SDS011;5021;51.506;11.320;2023-02-28T04:24:01;3.23;;;2.90;;
9960;SDS011;5021;51.506;11.320;2023-02-28T04:26:30;3.57;;;3.03;;
9960;SDS011;5021;51.506;11.320;2023-02-28T04:28:56;4.17;;;2.97;;
9960;SDS011;5021;51.506;11.320;2023-02-28T04:31:22;3.87;;;3.20;;
9960;SDS011;5021;51.506;11.320;2023-02-28T04:33:48;4.43;;;3.40;;
9960;SDS011;5021;51.506;11.320;2023-02-28T04:36:14;3.57;;;3.10;;
9960;SDS011;5021;51.506;11.320;2023-02-28T04:38:42;3.43;;;2.90;;
9960;SDS011;5021;51.506;11.320;2023-02-28T04:41:08;4.40;;;3.07;;
9960;SDS011;5021;51.506;11.320;2023-02-28T04:43:34;3.13;;;2.83;;
9960;SDS011;5021;51.506;11.320;2023-02-28T04:46:00;4.67;;;3.20;;
9960;SDS011;5021;51.506;11.320;2023-02-28T04:48:27;3.27;;;2.93;;
9960;SDS011;5021;51.506;11.320;2023-02-28T04:50:53;3.60;;;3.00;;
9960;SDS011;5021;51.506;11.320;2023-02-28T04:53:20;3.23;;;2.93;;
9960;SDS011;5021;51.506;11.320;2023-02-28T04:55:46;5.63;;;3.00;;
9960;SDS011;5021;51.506;11.320;2023-02-28T04:58:14;6.60;;;3.40;;
9960;SDS011;5021;51.506;11.320;2023-02-28T05:00:41;3.83;;;3.43;;
9960;SDS011;5021;51.506;11.320;2023-02-28T05:03:07;5.33;;;3.40;;
9960;SDS011;5021;51.506;11.320;2023-02-28T05:05:33;3.90;;;3.30;;
9960;SDS011;5021;51.506;11.320;2023-02-28T05:07:58;4.30;;;3.10;;
9960;SDS011;5021;51.506;11.320;2023-02-28T05:10:24;3.60;;;3.30;;
9960;SDS011;5021;51.506;11.320;2023-02-28T05:12:50;4.03;;;3.17;;
9960;SDS011;5021;51.506;11.320;2023-02-28T05:15:16;4.13;;;3.23;;
9960;SDS011;5021;51.506;11.320;2023-02-28T05:17:42;3.80;;;3.43;;
9960;SDS011;5021;51.506;11.320;2023-02-28T05:20:09;3.80;;;3.17;;
9960;SDS011;5021;51.506;11.320;2023-02-28T05:22:41;3.80;;;3.40;;
9960;SDS011;5021;51.506;11.320;2023-02-28T05:25:08;4.67;;;3.93;;
9960;SDS011;5021;51.506;11.320;2023-02-28T05:27:36;5.30;;;3.70;;
9960;SDS011;5021;51.506;11.320;2023-02-28T05:30:02;6.80;;;3.80;;
9960;SDS011;5021;51.506;11.320;2023-02-28T05:32:29;5.27;;;3.90;;
9960;SDS011;5021;51.506;11.320;2023-02-28T05:34:55;5.60;;;3.77;;
9960;SDS011;5021;51.506;11.320;2023-02-28T05:37:21;5.73;;;3.40;;
9960;SDS011;5021;51.506;11.320;2023-02-28T05:39:47;3.67;;;3.10;;
9960;SDS011;5021;51.506;11.320;2023-02-28T05:42:13;4.20;;;3.80;;
9960;SDS011;5021;51.506;11.320;2023-02-28T05:44:39;5.17;;;3.63;;
9960;SDS011;5021;51.506;11.320;2023-02-28T05:47:05;3.87;;;3.47;;
9960;SDS011;5021;51.506;11.320;2023-02-28T05:49:31;6.63;;;3.83;;
9960;SDS011;5021;51.506;11.320;2023-02-28T05:51:57;5.43;;;4.10;;
9960;SDS011;5021;51.506;11.320;2023-02-28T05:54:22;5.80;;;3.90;;
9960;SDS011;5021;51.506;11.320;2023-02-28T05:56:48;4.57;;;3.80;;
9960;SDS011;5021;51.506;11.320;2023-02-28T05:59:14;4.07;;;3.67;;
9960;SDS011;5021;51.506;11.320;2023-02-28T06:01:41;4.63;;;3.97;;
9960;SDS011;5021;51.506;11.320;2023-02-28T06:04:12;4.40;;;3.97;;
9960;SDS011;5021;51.506;11.320;2023-02-28T06:06:39;3.90;;;3.50;;
9960;SDS011;5021;51.506;11.320;2023-02-28T06:09:05;4.37;;;3.73;;
9960;SDS011;5021;51.506;11.320;2023-02-28T06:11:32;6.20;;;3.70;;
9960;SDS011;5021;51.506;11.320;2023-02-28T06:13:58;4.93;;;3.37;;
9960;SDS011;5021;51.506;11.320;2023-02-28T06:16:26;4.43;;;3.63;;
9960;SDS011;5021;51.506;11.320;2023-02-28T06:18:52;4.70;;;3.57;;
9960;SDS011;5021;51.506;11.320;2023-02-28T06:21:20;3.97;;;3.43;;
9960;SDS011;5021;51.506;11.320;2023-02-28T06:23:46;5.10;;;3.47;;
9960;SDS011;5021;51.506;11.320;2023-02-28T06:26:12;6.70;;;4.00;;
9960;SDS011;5021;51.506;11.320;2023-02-28T06:28:38;5.67;;;3.77;;
9960;SDS011;5021;51.506;11.320;2023-02-28T06:31:11;5.97;;;4.17;;
9960;SDS011;5021;51.506;11.320;2023-02-28T06:33:37;5.40;;;3.90;;
9960;SDS011;5021;51.506;11.320;2023-02-28T06:36:04;4.60;;;3.80;;
9960;SDS011;5021;51.506;11.320;2023-02-28T06:38:30;3.83;;;3.43;;
9960;SDS011;5021;51.506;11.320;2023-02-28T06:40:57;4.03;;;3.50;;
9960;SDS011;5021;51.506;11.320;2023-02-28T06:43:23;5.10;;;4.10;;
9960;SDS011;5021;51.506;11.320;2023-02-28T06:45:50;4.83;;;3.70;;
9960;SDS011;5021;51.506;11.320;2023-02-28T06:48:16;4.90;;;3.67;;
9960;SDS011;5021;51.506;11.320;2023-02-28T06:50:42;4.47;;;3.70;;
9960;SDS011;5021;51.506;11.320;2023-02-28T06:53:08;4.60;;;4.03;;
9960;SDS011;5021;51.506;11.320;2023-02-28T06:55:34;3.83;;;3.50;;
9960;SDS011;5021;51.506;11.320;2023-02-28T06:58:00;4.27;;;3.77;;
9960;SDS011;5021;51.506;11.320;2023-02-28T07:00:26;5.50;;;3.97;;
9960;SDS011;5021;51.506;11.320;2023-02-28T07:02:52;5.23;;;4.10;;
9960;SDS011;5021;51.506;11.320;2023-02-28T07:05:19;4.90;;;3.83;;
9960;SDS011;5021;51.506;11.320;2023-02-28T07:07:45;4.33;;;3.90;;
9960;SDS011;5021;51.506;11.320;2023-02-28T07:10:12;5.77;;;4.03;;
9960;SDS011;5021;51.506;11.320;2023-02-28T07:12:40;4.10;;;3.60;;
9960;SDS011;5021;51.506;11.320;2023-02-28T07:15:06;4.83;;;3.47;;
9960;SDS011;5021;51.506;11.320;2023-02-28T07:17:32;4.67;;;3.63;;
9960;SDS011;5021;51.506;11.320;2023-02-28T07:19:58;4.70;;;4.20;;
9960;SDS011;5021;51.506;11.320;2023-02-28T07:22:24;5.53;;;4.30;;
9960;SDS011;5021;51.506;11.320;2023-02-28T07:24:50;6.40;;;4.17;;
9960;SDS011;5021;51.506;11.320;2023-02-28T07:27:16;4.77;;;4.00;;
9960;SDS011;5021;51.506;11.320;2023-02-28T07:29:48;8.03;;;4.53;;
9960;SDS011;5021;51.506;11.320;2023-02-28T07:32:14;6.43;;;4.63;;
9960;SDS011;5021;51.506;11.320;2023-02-28T07:34:40;5.37;;;4.40;;
9960;SDS011;5021;51.506;11.320;2023-02-28T07:37:06;5.63;;;4.50;;
9960;SDS011;5021;51.506;11.320;2023-02-28T07:39:32;6.27;;;5.27;;
9960;SDS011;5021;51.506;11.320;2023-02-28T07:41:58;5.67;;;4.13;;
9960;SDS011;5021;51.506;11.320;2023-02-28T07:44:24;4.60;;;4.20;;
9960;SDS011;5021;51.506;11.320;2023-02-28T07:46:50;6.10;;;4.33;;
9960;SDS011;5021;51.506;11.320;2023-02-28T07:49:17;6.60;;;4.60;;
9960;SDS011;5021;51.506;11.320;2023-02-28T07:51:43;6.17;;;5.20;;
9960;SDS011;5021;51.506;11.320;2023-02-28T07:54:09;6.27;;;4.63;;
9960;SDS011;5021;51.506;11.320;2023-02-28T07:56:35;7.37;;;4.70;;
9960;SDS011;5021;51.506;11.320;2023-02-28T07:59:01;5.33;;;4.53;;
9960;SDS011;5021;51.506;11.320;2023-02-28T08:01:27;7.67;;;5.10;;
9960;SDS011;5021;51.506;11.320;2023-02-28T08:03:53;5.47;;;4.90;;
9960;SDS011;5021;51.506;11.320;2023-02-28T08:06:21;7.57;;;6.20;;
9960;SDS011;5021;51.506;11.320;2023-02-28T08:08:47;7.17;;;4.83;;
9960;SDS011;5021;51.506;11.320;2023-02-28T08:11:13;6.00;;;5.13;;
9960;SDS011;5021;51.506;11.320;2023-02-28T08:13:39;6.13;;;4.60;;
9960;SDS011;5021;51.506;11.320;2023-02-28T08:16:07;45.27;;;6.50;;
9960;SDS011;5021;51.506;11.320;2023-02-28T08:18:33;6.70;;;4.50;;
9960;SDS011;5021;51.506;11.320;2023-02-28T08:20:59;6.10;;;4.40;;
9960;SDS011;5021;51.506;11.320;2023-02-28T08:23:25;5.57;;;4.93;;
9960;SDS011;5021;51.506;11.320;2023-02-28T08:25:54;6.57;;;5.70;;
9960;SDS011;5021;51.506;11.320;2023-02-28T08:28:20;6.27;;;4.40;;
9960;SDS011;5021;51.506;11.320;2023-02-28T08:30:46;5.03;;;4.30;;
9960;SDS011;5021;51.506;11.320;2023-02-28T08:33:12;5.47;;;4.53;;
9960;SDS011;5021;51.506;11.320;2023-02-28T08:35:38;6.57;;;5.07;;
9960;SDS011;5021;51.506;11.320;2023-02-28T08:38:04;9.10;;;4.70;;
9960;SDS011;5021;51.506;11.320;2023-02-28T08:40:30;4.63;;;4.17;;
9960;SDS011;5021;51.506;11.320;2023-02-28T08:42:56;5.73;;;4.50;;
9960;SDS011;5021;51.506;11.320;2023-02-28T08:45:22;5.37;;;4.83;;
9960;SDS011;5021;51.506;11.320;2023-02-28T08:47:48;4.40;;;4.00;;
9960;SDS011;5021;51.506;11.320;2023-02-28T08:50:13;5.07;;;4.57;;
9960;SDS011;5021;51.506;11.320;2023-02-28T08:52:42;6.63;;;4.60;;
9960;SDS011;5021;51.506;11.320;2023-02-28T08:55:08;5.03;;;4.37;;
9960;SDS011;5021;51.506;11.320;2023-02-28T08:57:34;5.60;;;4.20;;
9960;SDS011;5021;51.506;11.320;2023-02-28T09:00:00;5.70;;;4.50;;
9960;SDS011;5021;51.506;11.320;2023-02-28T09:02:29;5.33;;;4.20;;
9960;SDS011;5021;51.506;11.320;2023-02-28T09:04:55;5.80;;;5.20;;
9960;SDS011;5021;51.506;11.320;2023-02-28T09:07:20;7.93;;;5.30;;
9960;SDS011;5021;51.506;11.320;2023-02-28T09:09:46;8.37;;;5.37;;
9960;SDS011;5021;51.506;11.320;2023-02-28T09:12:22;6.60;;;5.07;;
9960;SDS011;5021;51.506;11.320;2023-02-28T09:14:49;5.67;;;4.80;;
9960;SDS011;5021;51.506;11.320;2023-02-28T09:17:15;6.83;;;5.10;;
9960;SDS011;5021;51.506;11.320;2023-02-28T09:19:41;4.60;;;3.80;;
9960;SDS011;5021;51.506;11.320;2023-02-28T09:22:07;4.60;;;4.10;;
9960;SDS011;5021;51.506;11.320;2023-02-28T09:24:33;8.20;;;6.17;;
9960;SDS011;5021;51.506;11.320;2023-02-28T09:26:59;5.80;;;4.50;;
9960;SDS011;5021;51.506;11.320;2023-02-28T09:29:25;5.07;;;3.83;;
9960;SDS011;5021;51.506;11.320;2023-02-28T09:31:51;8.57;;;5.40;;
9960;SDS011;5021;51.506;11.320;2023-02-28T09:34:17;6.77;;;4.10;;
9960;SDS011;5021;51.506;11.320;2023-02-28T09:36:43;5.00;;;4.37;;
9960;SDS011;5021;51.506;11.320;2023-02-28T09:39:09;4.97;;;3.77;;
9960;SDS011;5021;51.506;11.320;2023-02-28T09:41:39;4.97;;;4.33;;
9960;SDS011;5021;51.506;11.320;2023-02-28T09:44:13;5.27;;;4.37;;
9960;SDS011;5021;51.506;11.320;2023-02-28T09:46:42;6.00;;;5.00;;
9960;SDS011;5021;51.506;11.320;2023-02-28T09:49:14;6.53;;;4.87;;
9960;SDS011;5021;51.506;11.320;2023-02-28T09:51:50;7.17;;;5.10;;
9960;SDS011;5021;51.506;11.320;2023-02-28T09:54:21;5.20;;;3.70;;
9960;SDS011;5021;51.506;11.320;2023-02-28T09:56:54;4.47;;;4.03;;
9960;SDS011;5021;51.506;11.320;2023-02-28T09:59:25;5.87;;;4.70;;
9960;SDS011;5021;51.506;11.320;2023-02-28T10:07:18;5.20;;;4.57;;
9960;SDS011;5021;51.506;11.320;2023-02-28T10:09:46;6.33;;;4.40;;
9960;SDS011;5021;51.506;11.320;2023-02-28T10:12:13;5.77;;;4.60;;
9960;SDS011;5021;51.506;11.320;2023-02-28T10:14:42;4.07;;;3.67;;
9960;SDS011;5021;51.506;11.320;2023-02-28T10:17:11;5.07;;;3.80;;
9960;SDS011;5021;51.506;11.320;2023-02-28T10:19:49;4.77;;;4.10;;
9960;SDS011;5021;51.506;11.320;2023-02-28T10:22:37;4.53;;;3.97;;
9960;SDS011;5021;51.506;11.320;2023-02-28T10:25:17;5.13;;;3.90;;
9960;SDS011;5021;51.506;11.320;2023-02-28T10:27:43;4.70;;;4.17;;
9960;SDS011;5021;51.506;11.320;2023-02-28T10:30:10;5.40;;;4.23;;
9960;SDS011;5021;51.506;11.320;2023-02-28T10:32:38;4.57;;;4.13;;
9960;SDS011;5021;51.506;11.320;2023-02-28T10:35:10;7.13;;;4.20;;
9960;SDS011;5021;51.506;11.320;2023-02-28T10:37:40;5.10;;;4.20;;
9960;SDS011;5021;51.506;11.320;2023-02-28T10:45:20;6.37;;;3.87;;
9960;SDS011;5021;51.506;11.320;2023-02-28T10:50:28;5.20;;;4.33;;
9960;SDS011;5021;51.506;11.320;2023-02-28T10:52:55;5.43;;;4.47;;
9960;SDS011;5021;51.506;11.320;2023-02-28T10:55:23;5.70;;;4.70;;
9960;SDS011;5021;51.506;11.320;2023-02-28T10:57:50;4.90;;;4.17;;
9960;SDS011;5021;51.506;11.320;2023-02-28T11:02:42;6.30;;;4.33;;
9960;SDS011;5021;51.506;11.320;2023-02-28T11:05:23;6.33;;;4.30;;
9960;SDS011;5021;51.506;11.320;2023-02-28T11:07:53;5.07;;;4.50;;
9960;SDS011;5021;51.506;11.320;2023-02-28T11:10:20;6.23;;;5.50;;
9960;SDS011;5021;51.506;11.320;2023-02-28T11:12:46;6.03;;;4.70;;
9960;SDS011;5021;51.506;11.320;2023-02-28T11:15:21;11.13;;;8.87;;
9960;SDS011;5021;51.506;11.320;2023-02-28T11:20:33;10.40;;;6.60;;
9960;SDS011;5021;51.506;11.320;2023-02-28T11:23:00;10.33;;;6.43;;
9960;SDS011;5021;51.506;11.320;2023-02-28T11:25:36;6.00;;;5.10;;
9960;SDS011;5021;51.506;11.320;2023-02-28T11:28:04;5.53;;;4.97;;
9960;SDS011;5021;51.506;11.320;2023-02-28T11:30:35;6.07;;;4.80;;
9960;SDS011;5021;51.506;11.320;2023-02-28T11:33:22;7.20;;;5.13;;
9960;SDS011;5021;51.506;11.320;2023-02-28T11:35:48;5.93;;;4.63;;
9960;SDS011;5021;51.506;11.320;2023-02-28T11:38:15;5.87;;;4.90;;
9960;SDS011;5021;51.506;11.320;2023-02-28T11:48:47;7.00;;;4.60;;
9960;SDS011;5021;51.506;11.320;2023-02-28T11:51:31;5.20;;;4.67;;
9960;SDS011;5021;51.506;11.320;2023-02-28T11:54:05;7.17;;;5.03;;
9960;SDS011;5021;51.506;11.320;2023-02-28T11:56:36;5.73;;;4.40;;
9960;SDS011;5021;51.506;11.320;2023-02-28T12:04:55;5.50;;;4.23;;
9960;SDS011;5021;51.506;11.320;2023-02-28T12:07:33;6.87;;;4.50;;
9960;SDS011;5021;51.506;11.320;2023-02-28T12:10:24;7.63;;;4.93;;
9960;SDS011;5021;51.506;11.320;2023-02-28T12:12:55;6.20;;;4.50;;
9960;SDS011;5021;51.506;11.320;2023-02-28T12:27:57;4.80;;;4.30;;
9960;SDS011;5021;51.506;11.320;2023-02-28T12:30:33;5.27;;;4.30;;
9960;SDS011;5021;51.506;11.320;2023-02-28T12:35:37;6.70;;;4.57;;
9960;SDS011;5021;51.506;11.320;2023-02-28T12:38:21;5.43;;;4.70;;
9960;SDS011;5021;51.506;11.320;2023-02-28T12:40:53;4.90;;;4.40;;
9960;SDS011;5021;51.506;11.320;2023-02-28T12:43:20;6.00;;;5.40;;
9960;SDS011;5021;51.506;11.320;2023-02-28T12:45:48;6.40;;;4.60;;
9960;SDS011;5021;51.506;11.320;2023-02-28T12:48:17;6.53;;;4.77;;
9960;SDS011;5021;51.506;11.320;2023-02-28T12:50:45;6.40;;;4.97;;
9960;SDS011;5021;51.506;11.320;2023-02-28T12:53:22;5.97;;;5.20;;
9960;SDS011;5021;51.506;11.320;2023-02-28T12:56:03;5.80;;;5.17;;
9960;SDS011;5021;51.506;11.320;2023-02-28T12:58:45;6.07;;;5.47;;
9960;SDS011;5021;51.506;11.320;2023-02-28T13:09:14;5.67;;;4.93;;
9960;SDS011;5021;51.506;11.320;2023-02-28T13:11:44;6.50;;;5.17;;
9960;SDS011;5021;51.506;11.320;2023-02-28T13:19:31;6.33;;;4.97;;
9960;SDS011;5021;51.506;11.320;2023-02-28T13:21:58;5.80;;;5.07;;
9960;SDS011;5021;51.506;11.320;2023-02-28T13:29:30;5.93;;;5.37;;
9960;SDS011;5021;51.506;11.320;2023-02-28T13:34:35;6.73;;;5.93;;
9960;SDS011;5021;51.506;11.320;2023-02-28T13:47:29;7.33;;;6.00;;
9960;SDS011;5021;51.506;11.320;2023-02-28T13:50:15;7.13;;;5.73;;
9960;SDS011;5021;51.506;11.320;2023-02-28T13:55:27;7.07;;;6.03;;
9960;SDS011;5021;51.506;11.320;2023-02-28T13:57:58;6.10;;;5.23;;
9960;SDS011;5021;51.506;11.320;2023-02-28T14:00:40;6.43;;;5.70;;
9960;SDS011;5021;51.506;11.320;2023-02-28T14:03:28;6.53;;;5.53;;
9960;SDS011;5021;51.506;11.320;2023-02-28T14:08:34;6.77;;;5.97;;
9960;SDS011;5021;51.506;11.320;2023-02-28T14:11:05;6.83;;;5.97;;
9960;SDS011;5021;51.506;11.320;2023-02-28T14:13:44;6.40;;;5.80;;
9960;SDS011;5021;51.506;11.320;2023-02-28T14:16:13;5.93;;;5.37;;
9960;SDS011;5021;51.506;11.320;2023-02-28T14:18:47;7.90;;;6.60;;
9960;SDS011;5021;51.506;11.320;2023-02-28T14:21:16;6.57;;;5.63;;
9960;SDS011;5021;51.506;11.320;2023-02-28T14:23:55;7.10;;;6.40;;
9960;SDS011;5021;51.506;11.320;2023-02-28T14:29:15;8.13;;;6.20;;
9960;SDS011;5021;51.506;11.320;2023-02-28T14:31:54;7.43;;;5.80;;
9960;SDS011;5021;51.506;11.320;2023-02-28T14:34:26;6.93;;;5.90;;
9960;SDS011;5021;51.506;11.320;2023-02-28T14:36:57;6.97;;;5.80;;
9960;SDS011;5021;51.506;11.320;2023-02-28T14:39:24;6.70;;;5.90;;
9960;SDS011;5021;51.506;11.320;2023-02-28T14:41:51;7.60;;;6.20;;
9960;SDS011;5021;51.506;11.320;2023-02-28T14:44:18;6.93;;;6.00;;
9960;SDS011;5021;51.506;11.320;2023-02-28T14:46:45;7.27;;;5.73;;
9960;SDS011;5021;51.506;11.320;2023-02-28T14:49:19;9.80;;;6.10;;
9960;SDS011;5021;51.506;11.320;2023-02-28T14:51:46;7.73;;;6.10;;
9960;SDS011;5021;51.506;11.320;2023-02-28T14:54:13;7.67;;;6.13;;
9960;SDS011;5021;51.506;11.320;2023-02-28T14:56:40;6.70;;;6.00;;
9960;SDS011;5021;51.506;11.320;2023-02-28T15:01:51;7.07;;;5.90;;
9960;SDS011;5021;51.506;11.320;2023-02-28T15:04:24;6.30;;;5.50;;
9960;SDS011;5021;51.506;11.320;2023-02-28T15:07:14;6.33;;;5.73;;
9960;SDS011;5021;51.506;11.320;2023-02-28T15:09:40;7.40;;;5.73;;
9960;SDS011;5021;51.506;11.320;2023-02-28T15:12:06;7.33;;;5.87;;
9960;SDS011;5021;51.506;11.320;2023-02-28T15:14:32;6.63;;;5.93;;
9960;SDS011;5021;51.506;11.320;2023-02-28T15:17:02;6.97;;;5.77;;
9960;SDS011;5021;51.506;11.320;2023-02-28T15:19:32;10.57;;;6.90;;
9960;SDS011;5021;51.506;11.320;2023-02-28T15:22:06;6.47;;;5.80;;
9960;SDS011;5021;51.506;11.320;2023-02-28T15:24:41;8.87;;;7.20;;
9960;SDS011;5021;51.506;11.320;2023-02-28T15:27:10;6.50;;;5.90;;
9960;SDS011;5021;51.506;11.320;2023-02-28T15:29:45;8.90;;;5.87;;
9960;SDS011;5021;51.506;11.320;2023-02-28T15:33:01;9.27;;;6.33;;
9960;SDS011;5021;51.506;11.320;2023-02-28T15:38:33;8.90;;;6.10;;
9960;SDS011;5021;51.506;11.320;2023-02-28T15:40:41;6.10;;;5.50;;
9960;SDS011;5021;51.506;11.320;2023-02-28T15:45:38;8.37;;;6.17;;
9960;SDS011;5021;51.506;11.320;2023-02-28T15:48:16;6.90;;;6.20;;
9960;SDS011;5021;51.506;11.320;2023-02-28T15:50:43;7.13;;;6.10;;
9960;SDS011;5021;51.506;11.320;2023-02-28T15:53:12;7.73;;;6.20;;
9960;SDS011;5021;51.506;11.320;2023-02-28T15:55:39;6.33;;;5.73;;
9960;SDS011;5021;51.506;11.320;2023-02-28T15:58:08;7.83;;;5.80;;
9960;SDS011;5021;51.506;11.320;2023-02-28T16:00:37;7.37;;;5.93;;
9960;SDS011;5021;51.506;11.320;2023-02-28T16:03:22;8.30;;;6.47;;
9960;SDS011;5021;51.506;11.320;2023-02-28T16:06:06;9.60;;;6.43;;
9960;SDS011;5021;51.506;11.320;2023-02-28T16:08:32;7.07;;;6.10;;
9960;SDS011;5021;51.506;11.320;2023-02-28T16:10:58;6.20;;;5.60;;
9960;SDS011;5021;51.506;11.320;2023-02-28T16:13:23;8.03;;;5.83;;
9960;SDS011;5021;51.506;11.320;2023-02-28T16:15:49;6.33;;;5.60;;
9960;SDS011;5021;51.506;11.320;2023-02-28T16:18:16;6.50;;;5.80;;
9960;SDS011;5021;51.506;11.320;2023-02-28T16:20:42;8.03;;;6.03;;
9960;SDS011;5021;51.506;11.320;2023-02-28T16:23:09;5.40;;;4.90;;
9960;SDS011;5021;51.506;11.320;2023-02-28T16:25:36;6.57;;;5.90;;
9960;SDS011;5021;51.506;11.320;2023-02-28T16:28:02;6.73;;;5.97;;
9960;SDS011;5021;51.506;11.320;2023-02-28T16:30:29;7.43;;;5.63;;
9960;SDS011;5021;51.506;11.320;2023-02-28T16:32:56;7.37;;;5.30;;
9960;SDS011;5021;51.506;11.320;2023-02-28T16:35:22;6.10;;;5.50;;
9960;SDS011;5021;51.506;11.320;2023-02-28T16:37:50;7.57;;;6.13;;
9960;SDS011;5021;51.506;11.320;2023-02-28T16:40:16;9.93;;;6.07;;
9960;SDS011;5021;51.506;11.320;2023-02-28T16:42:43;8.73;;;6.83;;
9960;SDS011;5021;51.506;11.320;2023-02-28T16:45:17;6.83;;;5.90;;
9960;SDS011;5021;51.506;11.320;2023-02-28T16:47:44;6.70;;;5.60;;
9960;SDS011;5021;51.506;11.320;2023-02-28T16:50:17;8.33;;;5.83;;
9960;SDS011;5021;51.506;11.320;2023-02-28T16:52:43;7.17;;;5.60;;
9960;SDS011;5021;51.506;11.320;2023-02-28T16:55:10;7.03;;;5.20;;
9960;SDS011;5021;51.506;11.320;2023-02-28T16:57:36;5.90;;;5.20;;
9960;SDS011;5021;51.506;11.320;2023-02-28T17:00:02;7.60;;;5.97;;
9960;SDS011;5021;51.506;11.320;2023-02-28T17:02:28;6.70;;;5.60;;
9960;SDS011;5021;51.506;11.320;2023-02-28T17:04:54;7.00;;;5.33;;
9960;SDS011;5021;51.506;11.320;2023-02-28T17:07:20;6.70;;;5.40;;
9960;SDS011;5021;51.506;11.320;2023-02-28T17:09:46;6.70;;;5.73;;
9960;SDS011;5021;51.506;11.320;2023-02-28T17:12:12;7.07;;;5.80;;